createdAt,value
2023-04-07T00:00:51.731Z,100366.16
2023-04-07T00:03:18.771Z,100369.41
2023-04-07T00:05:45.741Z,100364.28
2023-04-07T00:08:12.665Z,100368.84
2023-04-07T00:10:39.568Z,100368.06
2023-04-07T00:13:06.523Z,100365.63
2023-04-07T00:15:33.569Z,100369.59
2023-04-07T00:18:00.476Z,100376.88
2023-04-07T00:20:27.525Z,100377.66
2023-04-07T00:22:55.037Z,100380.38
2023-04-07T00:25:21.925Z,100372.03
2023-04-07T00:27:48.927Z,100377.34
2023-04-07T00:30:15.981Z,100378.53
2023-04-07T00:32:43.094Z,100383.84
2023-04-07T00:35:12.505Z,100375.81
2023-04-07T00:37:39.510Z,100382.97
2023-04-07T00:40:07.130Z,100389.94
2023-04-07T00:42:34.846Z,100390.25
2023-04-07T00:45:02.051Z,100395.28
2023-04-07T00:47:29.163Z,100393.03
2023-04-07T00:49:56.408Z,100398.91
2023-04-07T00:52:29.018Z,100398.53
2023-04-07T00:54:56.289Z,100397.97
2023-04-07T00:57:23.649Z,100396.50
2023-04-07T00:59:51.549Z,100396.59
2023-04-07T01:02:30.792Z,100398.72
2023-04-07T01:05:16.811Z,100401.66
2023-04-07T01:08:04.995Z,100402.44
2023-04-07T01:10:53.644Z,100408.19
2023-04-07T01:13:26.832Z,100401.41
2023-04-07T01:16:04.955Z,100403.63
2023-04-07T01:18:38.693Z,100421.50
2023-04-07T01:21:16.673Z,100414.28
2023-04-07T01:24:11.631Z,100412.06
2023-04-07T01:26:39.000Z,100420.44
2023-04-07T01:29:41.704Z,100424.81
2023-04-07T01:32:11.137Z,100422.91
2023-04-07T01:34:38.998Z,100421.25
2023-04-07T01:37:06.979Z,100428.94
2023-04-07T01:39:36.328Z,100427.03
2023-04-07T01:42:04.456Z,100434.44
2023-04-07T01:44:32.943Z,100434.06
2023-04-07T01:47:00.430Z,100439.06
2023-04-07T01:49:28.001Z,100440.34
2023-04-07T01:51:55.481Z,100444.28
2023-04-07T01:54:22.769Z,100443.19
2023-04-07T01:56:50.047Z,100449.22
2023-04-07T01:59:17.113Z,100439.38
2023-04-07T02:01:45.608Z,100452.25
2023-04-07T02:04:32.216Z,100452.34
2023-04-07T02:07:06.691Z,100450.84
2023-04-07T02:09:40.562Z,100455.19
2023-04-07T02:12:09.700Z,100453.63
2023-04-07T02:14:41.216Z,100452.97
2023-04-07T02:17:11.292Z,100459.19
2023-04-07T02:19:38.457Z,100463.41
2023-04-07T02:22:06.538Z,100472.22
2023-04-07T02:24:33.375Z,100472.63
2023-04-07T02:27:02.295Z,100471.63
2023-04-07T02:29:29.414Z,100468.53
2023-04-07T02:31:56.591Z,100474.03
2023-04-07T02:34:23.508Z,100474.22
2023-04-07T02:36:50.559Z,100474.88
2023-04-07T02:39:17.563Z,100480.56
2023-04-07T02:41:44.391Z,100480.09
2023-04-07T02:44:11.258Z,100477.75
2023-04-07T02:46:38.177Z,100486.94
2023-04-07T02:49:05.036Z,100480.59
2023-04-07T02:51:32.046Z,100478.53
2023-04-07T02:53:58.888Z,100477.00
2023-04-07T02:56:25.922Z,100482.84
2023-04-07T02:58:52.784Z,100485.03
2023-04-07T03:01:20.666Z,100481.66
2023-04-07T03:03:48.033Z,100489.72
2023-04-07T03:06:22.476Z,100494.84
2023-04-07T03:09:02.654Z,100497.84
2023-04-07T03:11:29.606Z,100502.25
2023-04-07T03:13:59.018Z,100500.66
2023-04-07T03:16:27.703Z,100509.91
2023-04-07T03:19:14.085Z,100508.34
2023-04-07T03:21:45.192Z,100521.31
2023-04-07T03:24:12.151Z,100517.47
2023-04-07T03:26:39.193Z,100525.13
2023-04-07T03:29:13.177Z,100513.59
2023-04-07T03:31:42.115Z,100511.81
2023-04-07T03:34:09.222Z,100516.38
2023-04-07T03:36:36.156Z,100522.13
2023-04-07T03:39:05.359Z,100531.47
2023-04-07T03:41:32.805Z,100531.06
2023-04-07T03:43:59.635Z,100525.69
2023-04-07T03:46:28.446Z,100531.84
2023-04-07T03:48:55.642Z,100541.00
2023-04-07T03:51:22.740Z,100540.69
2023-04-07T03:53:54.694Z,100537.31
2023-04-07T03:56:35.343Z,100540.09
2023-04-07T03:59:02.901Z,100542.63
2023-04-07T04:01:33.945Z,100547.13
2023-04-07T04:04:08.268Z,100548.94
2023-04-07T04:06:35.266Z,100546.94
2023-04-07T04:09:11.291Z,100547.84
2023-04-07T04:11:44.414Z,100551.41
2023-04-07T04:14:11.658Z,100559.84
2023-04-07T04:16:38.569Z,100553.94
2023-04-07T04:19:14.575Z,100556.53
2023-04-07T04:21:43.033Z,100563.19
2023-04-07T04:24:10.391Z,100565.22
2023-04-07T04:26:37.547Z,100570.16
2023-04-07T04:29:10.826Z,100569.88
2023-04-07T04:31:40.186Z,100560.28
2023-04-07T04:34:08.361Z,100567.72
2023-04-07T04:36:37.907Z,100573.03
2023-04-07T04:39:06.165Z,100570.91
2023-04-07T04:41:34.704Z,100575.38
2023-04-07T04:44:02.436Z,100567.69
2023-04-07T04:46:30.756Z,100568.88
2023-04-07T04:48:58.150Z,100572.56
2023-04-07T04:51:26.399Z,100574.88
2023-04-07T04:54:04.068Z,100576.38
2023-04-07T04:56:32.222Z,100586.34
2023-04-07T04:58:59.246Z,100594.78
2023-04-07T05:01:35.660Z,100596.78
2023-04-07T05:04:09.371Z,100601.91
2023-04-07T05:06:37.631Z,100602.75
2023-04-07T05:09:09.153Z,100620.31
2023-04-07T05:11:43.647Z,100621.13
2023-04-07T05:14:10.959Z,100619.50
2023-04-07T05:16:43.003Z,100620.81
2023-04-07T05:19:15.726Z,100635.75
2023-04-07T05:21:42.992Z,100634.06
2023-04-07T05:24:10.473Z,100639.91
2023-04-07T05:26:37.995Z,100638.09
2023-04-07T05:29:06.073Z,100649.50
2023-04-07T05:31:36.174Z,100649.03
2023-04-07T05:34:06.984Z,100658.16
2023-04-07T05:36:38.841Z,100658.66
2023-04-07T05:39:06.038Z,100658.81
2023-04-07T05:41:33.229Z,100664.78
2023-04-07T05:44:02.166Z,100660.13
2023-04-07T05:46:31.662Z,100667.94
2023-04-07T05:49:00.774Z,100670.59
2023-04-07T05:51:32.577Z,100674.75
2023-04-07T05:54:03.907Z,100674.44
2023-04-07T05:56:31.734Z,100676.53
2023-04-07T05:58:59.838Z,100678.56
2023-04-07T06:01:27.973Z,100675.25
2023-04-07T06:03:55.213Z,100690.16
2023-04-07T06:06:26.431Z,100684.19
2023-04-07T06:08:53.437Z,100679.22
2023-04-07T06:11:20.767Z,100680.34
2023-04-07T06:13:48.008Z,100679.69
2023-04-07T06:16:16.311Z,100683.97
2023-04-07T06:18:45.256Z,100693.41
2023-04-07T06:21:12.135Z,100696.91
2023-04-07T06:23:39.265Z,100689.09
2023-04-07T06:26:09.503Z,100690.91
2023-04-07T06:28:36.409Z,100692.06
2023-04-07T06:31:03.352Z,100695.50
2023-04-07T06:33:30.545Z,100690.16
2023-04-07T06:35:57.668Z,100694.13
2023-04-07T06:38:24.685Z,100696.31
2023-04-07T06:40:52.023Z,100703.09
2023-04-07T06:43:18.898Z,100698.28
2023-04-07T06:45:54.623Z,100708.84
2023-04-07T06:48:22.692Z,100724.53
2023-04-07T06:50:50.515Z,100718.53
2023-04-07T06:53:17.575Z,100718.25
2023-04-07T06:55:44.474Z,100720.13
2023-04-07T06:58:11.592Z,100725.41
2023-04-07T07:00:38.392Z,100724.16
2023-04-07T07:03:05.367Z,100731.94
2023-04-07T07:05:32.471Z,100731.00
2023-04-07T07:07:59.472Z,100736.72
2023-04-07T07:10:26.413Z,100740.38
2023-04-07T07:12:53.329Z,100743.69
2023-04-07T07:15:20.372Z,100746.69
2023-04-07T07:17:47.262Z,100748.50
2023-04-07T07:20:14.411Z,100752.38
2023-04-07T07:22:41.725Z,100753.94
2023-04-07T07:25:08.854Z,100760.53
2023-04-07T07:27:35.812Z,100756.06
2023-04-07T07:30:02.856Z,100766.53
2023-04-07T07:32:29.694Z,100757.00
2023-04-07T07:34:56.605Z,100766.66
2023-04-07T07:37:23.598Z,100762.72
2023-04-07T07:39:50.684Z,100767.63
2023-04-07T07:42:18.254Z,100767.72
2023-04-07T07:44:46.074Z,100768.78
2023-04-07T07:47:13.475Z,100767.41
2023-04-07T07:49:40.334Z,100767.06
2023-04-07T07:52:09.250Z,100767.22
2023-04-07T07:54:37.172Z,100773.50
2023-04-07T07:57:04.577Z,100779.56
2023-04-07T07:59:31.576Z,100784.75
2023-04-07T08:01:58.749Z,100774.72
2023-04-07T08:04:26.334Z,100777.19
2023-04-07T08:06:53.812Z,100777.75
2023-04-07T08:09:20.828Z,100776.81
2023-04-07T08:11:51.264Z,100789.31
2023-04-07T08:14:18.221Z,100780.56
2023-04-07T08:16:45.170Z,100783.22
2023-04-07T08:19:13.957Z,100790.22
2023-04-07T08:21:40.869Z,100785.78
2023-04-07T08:24:09.022Z,100787.00
2023-04-07T08:26:35.883Z,100796.66
2023-04-07T08:29:02.859Z,100799.66
2023-04-07T08:31:29.781Z,100795.94
2023-04-07T08:33:59.025Z,100802.16
2023-04-07T08:36:26.651Z,100804.88
2023-04-07T08:38:53.901Z,100810.69
2023-04-07T08:41:28.249Z,100806.56
2023-04-07T08:43:57.113Z,100805.59
2023-04-07T08:46:25.865Z,100802.66
2023-04-07T08:48:53.440Z,100813.88
2023-04-07T08:51:27.864Z,100814.81
2023-04-07T08:53:55.172Z,100804.16
2023-04-07T08:56:22.099Z,100817.75
2023-04-07T08:58:49.471Z,100815.94
2023-04-07T09:01:16.719Z,100821.34
2023-04-07T09:03:46.607Z,100823.91
2023-04-07T09:06:14.437Z,100822.44
2023-04-07T09:08:41.277Z,100825.75
2023-04-07T09:11:08.284Z,100819.50
2023-04-07T09:13:35.413Z,100817.66
2023-04-07T09:16:02.603Z,100817.84
2023-04-07T09:18:29.487Z,100820.41
2023-04-07T09:21:04.537Z,100825.50
2023-04-07T09:23:39.489Z,100815.78
2023-04-07T09:26:22.290Z,100818.47
2023-04-07T09:28:52.763Z,100820.91
2023-04-07T09:31:21.451Z,100816.88
2023-04-07T09:33:49.896Z,100812.53
2023-04-07T09:36:16.980Z,100820.06
2023-04-07T09:38:45.446Z,100830.09
2023-04-07T09:41:18.413Z,100824.13
2023-04-07T09:43:46.933Z,100820.28
2023-04-07T09:46:16.062Z,100826.03
2023-04-07T09:48:44.938Z,100819.88
2023-04-07T09:51:16.692Z,100824.44
2023-04-07T09:53:52.835Z,100824.84
2023-04-07T09:56:24.057Z,100818.34
2023-04-07T09:58:53.956Z,100824.91
2023-04-07T10:01:21.944Z,100828.97
2023-04-07T10:03:51.146Z,100837.81
2023-04-07T10:06:20.763Z,100838.06
2023-04-07T10:08:47.846Z,100834.38
2023-04-07T10:11:16.009Z,100833.72
2023-04-07T10:13:43.072Z,100825.72
2023-04-07T10:16:09.959Z,100831.13
2023-04-07T10:18:38.403Z,100837.28
2023-04-07T10:21:08.095Z,100829.72
2023-04-07T10:23:47.952Z,100837.16
2023-04-07T10:26:18.443Z,100830.16
2023-04-07T10:28:47.121Z,100839.66
2023-04-07T10:31:14.052Z,100834.28
2023-04-07T10:33:49.845Z,100830.75
2023-04-07T10:36:18.904Z,100842.25
2023-04-07T10:39:09.041Z,100833.38
2023-04-07T10:41:40.593Z,100837.53
2023-04-07T10:44:09.051Z,100839.38
2023-04-07T10:46:52.324Z,100841.88
2023-04-07T10:49:19.394Z,100836.25
2023-04-07T10:52:12.167Z,100830.66
2023-04-07T10:54:39.909Z,100841.78
2023-04-07T10:57:11.680Z,100846.38
2023-04-07T11:00:03.029Z,100848.66
2023-04-07T11:02:30.062Z,100834.19
2023-04-07T11:04:57.383Z,100834.41
2023-04-07T11:07:44.990Z,100834.81
2023-04-07T11:10:13.110Z,100847.41
2023-04-07T11:12:39.999Z,100845.16
2023-04-07T11:15:20.984Z,100851.72
2023-04-07T11:18:06.119Z,100860.03
2023-04-07T11:20:53.303Z,100857.56
2023-04-07T11:23:24.061Z,100859.59
2023-04-07T11:25:52.797Z,100862.81
2023-04-07T11:28:19.807Z,100871.13
2023-04-07T11:30:52.199Z,100867.28
2023-04-07T11:33:23.798Z,100861.09
2023-04-07T11:35:52.630Z,100866.66
2023-04-07T11:38:20.121Z,100876.78
2023-04-07T11:40:47.379Z,100879.28
2023-04-07T11:43:22.191Z,100881.75
2023-04-07T11:46:14.954Z,100881.34
2023-04-07T11:48:43.729Z,100880.13
2023-04-07T11:51:22.825Z,100881.34
2023-04-07T11:53:57.045Z,100878.06
2023-04-07T11:56:24.268Z,100880.94
2023-04-07T11:58:52.714Z,100884.84
2023-04-07T12:01:19.769Z,100877.84
2023-04-07T12:04:00.140Z,100880.53
2023-04-07T12:06:38.722Z,100880.34
2023-04-07T12:09:06.112Z,100882.38
2023-04-07T12:11:33.479Z,100885.06
2023-04-07T12:14:01.438Z,100896.63
2023-04-07T12:16:28.300Z,100890.81
2023-04-07T12:18:55.344Z,100890.84
2023-04-07T12:21:22.214Z,100892.00
2023-04-07T12:23:50.306Z,100890.19
2023-04-07T12:26:17.690Z,100892.84
2023-04-07T12:28:45.571Z,100892.19
2023-04-07T12:31:12.511Z,100886.28
2023-04-07T12:33:39.310Z,100894.91
2023-04-07T12:36:07.242Z,100892.84
2023-04-07T12:38:34.369Z,100890.41
2023-04-07T12:41:03.732Z,100890.22
2023-04-07T12:43:31.181Z,100896.63
2023-04-07T12:45:58.360Z,100892.31
2023-04-07T12:48:26.898Z,100894.13
2023-04-07T12:50:53.820Z,100895.13
2023-04-07T12:53:20.818Z,100890.00
2023-04-07T12:55:50.322Z,100897.03
2023-04-07T12:58:18.593Z,100892.69
2023-04-07T13:00:47.861Z,100907.78
2023-04-07T13:03:14.953Z,100909.59
2023-04-07T13:05:42.009Z,100906.94
2023-04-07T13:08:08.961Z,100910.00
2023-04-07T13:10:35.854Z,100910.16
2023-04-07T13:13:02.795Z,100902.06
2023-04-07T13:15:29.757Z,100901.94
2023-04-07T13:17:56.932Z,100913.06
2023-04-07T13:20:23.947Z,100905.84
2023-04-07T13:23:02.830Z,100907.06
2023-04-07T13:25:34.287Z,100908.31
2023-04-07T13:28:01.735Z,100908.13
2023-04-07T13:30:28.708Z,100915.94
2023-04-07T13:32:55.830Z,100910.16
2023-04-07T13:35:22.925Z,100913.41
2023-04-07T13:37:50.473Z,100909.34
2023-04-07T13:40:17.354Z,100905.25
2023-04-07T13:42:44.338Z,100908.72
2023-04-07T13:45:11.480Z,100911.84
2023-04-07T13:47:38.740Z,100905.03
2023-04-07T13:50:06.182Z,100908.56
2023-04-07T13:52:35.450Z,100909.19
2023-04-07T13:55:04.364Z,100911.03
2023-04-07T13:57:31.864Z,100901.75
2023-04-07T13:59:58.736Z,100911.69
2023-04-07T14:02:28.184Z,100909.00
2023-04-07T14:04:55.746Z,100898.69
2023-04-07T14:07:23.239Z,100899.88
2023-04-07T14:09:50.181Z,100895.69
2023-04-07T14:12:17.276Z,100891.41
2023-04-07T14:14:44.180Z,100893.25
2023-04-07T14:17:10.959Z,100893.44
2023-04-07T14:19:37.869Z,100900.38
2023-04-07T14:22:04.691Z,100900.66
2023-04-07T14:24:31.704Z,100900.41
2023-04-07T14:26:58.542Z,100895.47
2023-04-07T14:29:25.472Z,100902.63
2023-04-07T14:31:52.537Z,100904.88
2023-04-07T14:34:19.475Z,100899.34
2023-04-07T14:36:57.280Z,100909.84
2023-04-07T14:39:25.795Z,100895.72
2023-04-07T14:41:53.452Z,100899.13
2023-04-07T14:44:20.393Z,100905.63
2023-04-07T14:46:47.316Z,100902.94
2023-04-07T14:49:15.048Z,100904.00
2023-04-07T14:51:41.906Z,100897.69
2023-04-07T14:54:08.835Z,100900.41
2023-04-07T14:56:35.770Z,100890.41
2023-04-07T14:59:03.363Z,100898.44
2023-04-07T15:01:30.399Z,100891.28
2023-04-07T15:03:58.706Z,100904.34
2023-04-07T15:06:26.450Z,100899.59
2023-04-07T15:08:53.944Z,100893.94
2023-04-07T15:11:21.790Z,100895.56
2023-04-07T15:13:48.975Z,100882.66
2023-04-07T15:16:16.635Z,100899.53
2023-04-07T15:18:45.487Z,100904.84
2023-04-07T15:21:13.602Z,100894.94
2023-04-07T15:23:41.907Z,100896.09
2023-04-07T15:26:09.734Z,100896.13
2023-04-07T15:28:36.830Z,100898.97
2023-04-07T15:31:07.025Z,100894.94
2023-04-07T15:33:34.485Z,100909.09
2023-04-07T15:36:01.558Z,100915.78
2023-04-07T15:38:29.408Z,100912.16
2023-04-07T15:40:56.286Z,100918.97
2023-04-07T15:43:23.597Z,100925.50
2023-04-07T15:45:50.803Z,100921.03
2023-04-07T15:48:18.242Z,100917.69
2023-04-07T15:50:45.053Z,100926.44
2023-04-07T15:53:12.084Z,100925.88
2023-04-07T15:55:39.034Z,100927.53
2023-04-07T15:58:06.060Z,100921.94
2023-04-07T16:00:34.157Z,100927.75
2023-04-07T16:03:02.430Z,100924.06
2023-04-07T16:05:29.693Z,100926.44
2023-04-07T16:07:57.089Z,100925.38
2023-04-07T16:10:24.241Z,100929.78
2023-04-07T16:12:51.093Z,100933.97
2023-04-07T16:15:32.524Z,100940.44
2023-04-07T16:18:06.459Z,100934.00
2023-04-07T16:20:33.445Z,100946.22
2023-04-07T16:23:00.456Z,100950.75
2023-04-07T16:25:27.363Z,100952.19
2023-04-07T16:27:54.253Z,100948.66
2023-04-07T16:30:21.171Z,100951.56
2023-04-07T16:32:48.232Z,100955.50
2023-04-07T16:35:15.619Z,100961.47
2023-04-07T16:37:43.352Z,100956.50
2023-04-07T16:40:10.543Z,100949.28
2023-04-07T16:42:37.505Z,100956.53
2023-04-07T16:45:05.313Z,100962.53
2023-04-07T16:47:32.672Z,100970.56
2023-04-07T16:49:59.697Z,100967.50
2023-04-07T16:52:26.723Z,100971.78
2023-04-07T16:54:53.518Z,100968.50
2023-04-07T16:57:20.442Z,100970.13
2023-04-07T16:59:48.502Z,100964.16
2023-04-07T17:02:16.965Z,100968.06
2023-04-07T17:04:44.367Z,100971.59
2023-04-07T17:07:11.885Z,100974.28
2023-04-07T17:09:39.057Z,100977.16
2023-04-07T17:12:06.343Z,100974.44
2023-04-07T17:14:33.928Z,100977.25
2023-04-07T17:17:01.434Z,100976.69
2023-04-07T17:19:28.717Z,100976.09
2023-04-07T17:21:55.674Z,100975.03
2023-04-07T17:24:22.578Z,100981.03
2023-04-07T17:26:49.796Z,100973.34
2023-04-07T17:29:17.271Z,100973.59
2023-04-07T17:31:44.186Z,100979.56
2023-04-07T17:34:11.462Z,100978.50
2023-04-07T17:36:38.406Z,100978.09
2023-04-07T17:39:05.520Z,100978.09
2023-04-07T17:41:34.713Z,100982.41
2023-04-07T17:44:02.273Z,100981.22
2023-04-07T17:46:29.506Z,100984.22
2023-04-07T17:48:59.875Z,100987.94
2023-04-07T17:51:27.714Z,100990.88
2023-04-07T17:53:54.707Z,100993.56
2023-04-07T17:56:21.834Z,100996.59
2023-04-07T17:58:48.860Z,100991.75
2023-04-07T18:01:17.041Z,100998.69
2023-04-07T18:03:44.438Z,101000.09
2023-04-07T18:06:16.207Z,100999.91
2023-04-07T18:08:45.531Z,101014.25
2023-04-07T18:11:12.419Z,101012.63
2023-04-07T18:13:39.385Z,101012.34
2023-04-07T18:16:11.837Z,101018.59
2023-04-07T18:18:39.002Z,101018.81
2023-04-07T18:21:07.271Z,101022.50
2023-04-07T18:23:34.909Z,101024.53
2023-04-07T18:26:06.763Z,101024.78
2023-04-07T18:28:34.302Z,101031.75
2023-04-07T18:31:09.264Z,101031.13
2023-04-07T18:33:36.898Z,101032.94
2023-04-07T18:36:07.227Z,101035.84
2023-04-07T18:38:38.354Z,101032.94
2023-04-07T18:41:08.648Z,101042.19
2023-04-07T18:43:35.789Z,101047.53
2023-04-07T18:46:02.752Z,101045.94
2023-04-07T18:48:29.620Z,101046.06
2023-04-07T18:50:56.775Z,101049.44
2023-04-07T18:53:25.110Z,101041.50
2023-04-07T18:55:52.455Z,101044.72
2023-04-07T18:58:20.162Z,101051.53
2023-04-07T19:00:50.056Z,101053.97
2023-04-07T19:03:17.605Z,101055.84
2023-04-07T19:05:47.549Z,101063.88
2023-04-07T19:08:16.080Z,101064.63
2023-04-07T19:10:43.765Z,101060.47
2023-04-07T19:13:10.749Z,101075.09
2023-04-07T19:15:39.445Z,101072.25
2023-04-07T19:18:08.410Z,101075.72
2023-04-07T19:20:35.587Z,101073.34
2023-04-07T19:23:02.750Z,101069.84
2023-04-07T19:25:30.838Z,101078.66
2023-04-07T19:27:58.436Z,101080.13
2023-04-07T19:30:25.413Z,101082.66
2023-04-07T19:32:52.567Z,101083.56
2023-04-07T19:35:19.581Z,101096.88
2023-04-07T19:37:48.177Z,101088.91
2023-04-07T19:40:15.437Z,101092.69
2023-04-07T19:42:42.592Z,101087.44
2023-04-07T19:45:09.987Z,101083.75
2023-04-07T19:47:37.348Z,101088.84
2023-04-07T19:50:05.328Z,101098.22
2023-04-07T19:52:32.781Z,101098.41
2023-04-07T19:55:01.263Z,101099.00
2023-04-07T19:57:29.186Z,101105.09
2023-04-07T19:59:56.291Z,101096.31
2023-04-07T20:02:23.948Z,101104.19
2023-04-07T20:04:51.195Z,101104.97
2023-04-07T20:07:18.102Z,101106.25
2023-04-07T20:09:45.125Z,101112.53
2023-04-07T20:12:12.109Z,101112.94
2023-04-07T20:14:38.972Z,101109.22
2023-04-07T20:17:05.910Z,101113.44
2023-04-07T20:19:32.759Z,101115.16
2023-04-07T20:21:59.656Z,101108.34
2023-04-07T20:24:26.521Z,101112.31
2023-04-07T20:26:53.346Z,101111.31
2023-04-07T20:29:21.736Z,101113.16
2023-04-07T20:31:49.339Z,101109.66
2023-04-07T20:34:16.773Z,101116.88
2023-04-07T20:36:43.943Z,101117.44
2023-04-07T20:39:10.765Z,101118.34
2023-04-07T20:41:37.905Z,101117.13
2023-04-07T20:44:04.944Z,101119.66
2023-04-07T20:46:33.590Z,101125.72
2023-04-07T20:49:00.803Z,101118.09
2023-04-07T20:51:29.040Z,101121.97
2023-04-07T20:53:55.903Z,101122.41
2023-04-07T20:56:23.882Z,101122.03
2023-04-07T20:58:51.128Z,101126.94
2023-04-07T21:01:18.247Z,101128.50
2023-04-07T21:03:45.435Z,101127.31
2023-04-07T21:06:12.382Z,101135.97
2023-04-07T21:08:39.623Z,101132.72
2023-04-07T21:11:06.699Z,101133.66
2023-04-07T21:13:33.611Z,101135.50
2023-04-07T21:16:01.514Z,101139.09
2023-04-07T21:18:28.415Z,101135.94
2023-04-07T21:21:02.084Z,101141.47
2023-04-07T21:23:31.332Z,101141.47
2023-04-07T21:26:04.798Z,101140.22
2023-04-07T21:28:32.739Z,101136.50
2023-04-07T21:30:59.589Z,101143.19
2023-04-07T21:33:26.434Z,101137.09
2023-04-07T21:35:55.227Z,101135.75
2023-04-07T21:38:22.063Z,101140.91
2023-04-07T21:40:49.030Z,101136.38
2023-04-07T21:43:16.156Z,101130.00
2023-04-07T21:45:43.163Z,101142.75
2023-04-07T21:48:10.143Z,101141.34
2023-04-07T21:50:37.081Z,101143.97
2023-04-07T21:53:04.006Z,101146.91
2023-04-07T21:55:30.923Z,101147.09
2023-04-07T21:57:58.307Z,101142.69
2023-04-07T22:00:25.390Z,101141.56
2023-04-07T22:02:52.467Z,101150.72
2023-04-07T22:05:19.572Z,101154.84
2023-04-07T22:07:46.889Z,101142.88
2023-04-07T22:10:13.860Z,101141.31
2023-04-07T22:12:41.360Z,101148.31
2023-04-07T22:15:09.496Z,101141.88
2023-04-07T22:17:36.418Z,101144.25
2023-04-07T22:20:04.120Z,101142.97
2023-04-07T22:22:31.179Z,101143.78
2023-04-07T22:24:58.111Z,101144.25
2023-04-07T22:27:24.998Z,101145.81
2023-04-07T22:29:51.886Z,101150.16
2023-04-07T22:32:18.998Z,101151.00
2023-04-07T22:34:46.641Z,101152.66
2023-04-07T22:37:13.595Z,101151.44
2023-04-07T22:39:40.437Z,101147.59
2023-04-07T22:42:07.319Z,101148.06
2023-04-07T22:44:34.222Z,101148.91
2023-04-07T22:47:01.261Z,101153.41
2023-04-07T22:49:30.793Z,101149.91
2023-04-07T22:51:57.758Z,101152.94
2023-04-07T22:54:24.653Z,101150.84
2023-04-07T22:56:51.663Z,101152.59
2023-04-07T22:59:18.662Z,101154.53
2023-04-07T23:01:45.669Z,101155.91
2023-04-07T23:04:12.656Z,101158.78
2023-04-07T23:06:43.666Z,101159.69
2023-04-07T23:09:10.883Z,101156.94
2023-04-07T23:11:37.841Z,101157.56
2023-04-07T23:14:07.434Z,101168.66
2023-04-07T23:16:34.613Z,101167.44
2023-04-07T23:19:01.778Z,101153.50
2023-04-07T23:21:31.345Z,101159.22
2023-04-07T23:23:58.877Z,101161.97
2023-04-07T23:26:26.905Z,101164.31
2023-04-07T23:28:53.908Z,101159.63
2023-04-07T23:31:20.927Z,101162.91
2023-04-07T23:33:48.039Z,101171.50
2023-04-07T23:36:15.156Z,101164.66
2023-04-07T23:38:42.250Z,101162.47
2023-04-07T23:41:09.241Z,101176.19
2023-04-07T23:43:36.111Z,101160.50
2023-04-07T23:46:03.063Z,101168.00
2023-04-07T23:48:31.114Z,101158.97
2023-04-07T23:50:59.943Z,101164.03
2023-04-07T23:53:26.973Z,101166.88
2023-04-07T23:55:53.910Z,101164.22
2023-04-07T23:58:21.037Z,101167.91
